sensor_id;sensor_type;location;lat;lon;timestamp;pressure;altitude;pressure_sealevel;temperature;humidity
69302;BME280;56689;47.842;8.974;2023-11-21T00:03:03;96078.81;;;7.94;95.25
69302;BME280;56689;47.842;8.974;2023-11-21T00:10:15;96066.66;;;7.81;97.40
69302;BME280;56689;47.842;8.974;2023-11-21T00:21:10;96101.25;;;8.01;97.92
69302;BME280;56689;47.842;8.974;2023-11-21T00:24:14;96100.44;;;8.05;98.33
69302;BME280;56689;47.842;8.974;2023-11-21T00:41:44;96081.47;;;8.03;100.00
69302;BME280;56689;47.842;8.974;2023-11-21T00:45:17;96081.44;;;8.00;100.00
69302;BME280;56689;47.842;8.974;2023-11-21T00:59:09;96036.53;;;7.83;100.00
69302;BME280;56689;47.842;8.974;2023-11-21T01:09:46;96071.09;;;7.97;100.00
69302;BME280;56689;47.842;8.974;2023-11-21T01:13:26;96048.50;;;7.75;100.00
69302;BME280;56689;47.842;8.974;2023-11-21T01:16:38;96076.22;;;7.92;100.00
69302;BME280;56689;47.842;8.974;2023-11-21T01:20:34;96077.09;;;7.94;100.00
69302;BME280;56689;47.842;8.974;2023-11-21T01:27:03;96062.44;;;7.92;100.00
69302;BME280;56689;47.842;8.974;2023-11-21T01:43:51;96077.09;;;7.91;100.00
69302;BME280;56689;47.842;8.974;2023-11-21T01:49:57;96068.31;;;7.73;100.00
69302;BME280;56689;47.842;8.974;2023-11-21T01:59:55;96052.75;;;7.66;100.00
69302;BME280;56689;47.842;8.974;2023-11-21T02:02:29;96074.28;;;7.65;100.00
69302;BME280;56689;47.842;8.974;2023-11-21T02:05:10;96058.72;;;7.61;100.00
69302;BME280;56689;47.842;8.974;2023-11-21T02:08:00;96049.13;;;7.42;100.00
69302;BME280;56689;47.842;8.974;2023-11-21T02:10:37;96060.38;;;7.48;100.00
69302;BME280;56689;47.842;8.974;2023-11-21T02:13:25;96047.41;;;7.42;100.00
69302;BME280;56689;47.842;8.974;2023-11-21T02:16:11;96051.72;;;7.46;100.00
69302;BME280;56689;47.842;8.974;2023-11-21T02:18:44;96055.97;;;7.38;100.00
69302;BME280;56689;47.842;8.974;2023-11-21T02:21:16;96042.06;;;7.25;100.00
69302;BME280;56689;47.842;8.974;2023-11-21T02:24:14;96068.88;;;7.38;100.00
69302;BME280;56689;47.842;8.974;2023-11-21T02:26:44;96058.47;;;7.32;100.00
69302;BME280;56689;47.842;8.974;2023-11-21T02:29:14;96056.88;;;7.42;100.00
69302;BME280;56689;47.842;8.974;2023-11-21T02:32:01;96045.56;;;7.30;100.00
69302;BME280;56689;47.842;8.974;2023-11-21T02:34:36;96040.34;;;7.23;100.00
69302;BME280;56689;47.842;8.974;2023-11-21T02:37:19;96044.59;;;7.18;100.00
69302;BME280;56689;47.842;8.974;2023-11-21T02:40:09;96052.38;;;7.21;100.00
69302;BME280;56689;47.842;8.974;2023-11-21T02:43:05;96046.22;;;7.08;100.00
69302;BME280;56689;47.842;8.974;2023-11-21T02:46:05;96038.50;;;7.12;100.00
69302;BME280;56689;47.842;8.974;2023-11-21T02:48:43;96051.53;;;7.23;100.00
69302;BME280;56689;47.842;8.974;2023-11-21T02:51:46;96047.97;;;7.13;100.00
69302;BME280;56689;47.842;8.974;2023-11-21T02:54:23;96039.38;;;7.13;100.00
69302;BME280;56689;47.842;8.974;2023-11-21T02:57:19;96042.78;;;7.10;100.00
69302;BME280;56689;47.842;8.974;2023-11-21T03:00:14;96034.13;;;7.05;100.00
69302;BME280;56689;47.842;8.974;2023-11-21T03:03:10;96048.03;;;7.18;100.00
69302;BME280;56689;47.842;8.974;2023-11-21T03:09:00;96024.66;;;7.04;100.00
69302;BME280;56689;47.842;8.974;2023-11-21T03:11:29;96021.25;;;7.07;100.00
69302;BME280;56689;47.842;8.974;2023-11-21T03:14:20;96033.34;;;7.12;100.00
69302;BME280;56689;47.842;8.974;2023-11-21T03:17:22;96035.06;;;7.12;100.00
69302;BME280;56689;47.842;8.974;2023-11-21T03:19:57;96023.78;;;7.04;100.00
69302;BME280;56689;47.842;8.974;2023-11-21T03:22:25;96039.41;;;7.18;100.00
69302;BME280;56689;47.842;8.974;2023-11-21T03:24:51;96043.66;;;7.12;100.00
69302;BME280;56689;47.842;8.974;2023-11-21T03:27:22;96028.19;;;7.12;100.00
69302;BME280;56689;47.842;8.974;2023-11-21T03:29:50;96023.78;;;7.04;100.00
69302;BME280;56689;47.842;8.974;2023-11-21T03:32:34;96029.00;;;7.08;100.00
69302;BME280;56689;47.842;8.974;2023-11-21T03:35:08;96019.56;;;7.09;100.00
69302;BME280;56689;47.842;8.974;2023-11-21T03:37:39;96023.00;;;7.11;100.00
69302;BME280;56689;47.842;8.974;2023-11-21T03:40:29;96030.75;;;7.09;100.00
69302;BME280;56689;47.842;8.974;2023-11-21T03:43:07;96038.47;;;7.08;100.00
69302;BME280;56689;47.842;8.974;2023-11-21T03:46:09;96042.84;;;7.17;100.00
69302;BME280;56689;47.842;8.974;2023-11-21T03:48:39;96035.84;;;7.06;100.00
69302;BME280;56689;47.842;8.974;2023-11-21T03:51:30;96020.41;;;7.08;100.00
69302;BME280;56689;47.842;8.974;2023-11-21T03:54:09;96035.91;;;7.12;100.00
69302;BME280;56689;47.842;8.974;2023-11-21T04:00:47;96057.41;;;7.11;100.00
69302;BME280;56689;47.842;8.974;2023-11-21T04:03:27;96034.03;;;6.96;100.00
69302;BME280;56689;47.842;8.974;2023-11-21T04:06:26;96050.53;;;7.07;100.00
69302;BME280;56689;47.842;8.974;2023-11-21T04:09:31;96048.75;;;7.06;100.00
69302;BME280;56689;47.842;8.974;2023-11-21T04:12:12;96037.56;;;7.04;100.00
69302;BME280;56689;47.842;8.974;2023-11-21T04:14:57;96049.69;;;7.13;100.00
69302;BME280;56689;47.842;8.974;2023-11-21T04:21:24;96034.13;;;7.05;100.00
69302;BME280;56689;47.842;8.974;2023-11-21T04:24:19;96054.91;;;7.16;100.00
69302;BME280;56689;47.842;8.974;2023-11-21T04:27:09;96033.25;;;7.00;100.00
69302;BME280;56689;47.842;8.974;2023-11-21T04:29:43;96037.63;;;7.07;100.00
69302;BME280;56689;47.842;8.974;2023-11-21T04:36:13;96043.63;;;7.08;100.00
69302;BME280;56689;47.842;8.974;2023-11-21T04:38:48;96029.75;;;6.97;100.00
69302;BME280;56689;47.842;8.974;2023-11-21T04:41:23;96049.63;;;7.05;100.00
69302;BME280;56689;47.842;8.974;2023-11-21T04:43:48;96042.72;;;7.06;100.00
69302;BME280;56689;47.842;8.974;2023-11-21T04:46:14;96053.16;;;7.15;100.00
69302;BME280;56689;47.842;8.974;2023-11-21T04:48:40;96041.06;;;7.11;100.00
69302;BME280;56689;47.842;8.974;2023-11-21T04:51:05;96028.94;;;7.01;100.00
69302;BME280;56689;47.842;8.974;2023-11-21T04:53:31;96041.94;;;7.10;100.00
69302;BME280;56689;47.842;8.974;2023-11-21T04:55:57;96053.03;;;7.03;100.00
69302;BME280;56689;47.842;8.974;2023-11-21T04:58:23;96063.41;;;7.07;100.00
69302;BME280;56689;47.842;8.974;2023-11-21T05:00:48;96049.47;;;6.90;100.00
69302;BME280;56689;47.842;8.974;2023-11-21T05:03:15;96070.19;;;6.99;100.00
69302;BME280;56689;47.842;8.974;2023-11-21T05:05:40;96069.38;;;7.03;100.00
69302;BME280;56689;47.842;8.974;2023-11-21T05:08:05;96068.50;;;7.01;100.00
69302;BME280;56689;47.842;8.974;2023-11-21T05:10:31;96065.09;;;7.02;100.00
69302;BME280;56689;47.842;8.974;2023-11-21T05:12:56;96070.16;;;6.96;100.00
69302;BME280;56689;47.842;8.974;2023-11-21T05:15:22;96064.00;;;6.85;100.00
69302;BME280;56689;47.842;8.974;2023-11-21T05:17:48;96071.00;;;6.94;100.00
69302;BME280;56689;47.842;8.974;2023-11-21T05:20:15;96063.28;;;6.95;100.00
69302;BME280;56689;47.842;8.974;2023-11-21T05:22:49;96049.44;;;6.87;100.00
69302;BME280;56689;47.842;8.974;2023-11-21T05:25:15;96044.22;;;6.84;100.00
69302;BME280;56689;47.842;8.974;2023-11-21T05:27:42;96070.19;;;6.99;100.00
69302;BME280;56689;47.842;8.974;2023-11-21T05:30:07;96064.94;;;6.90;100.00
69302;BME280;56689;47.842;8.974;2023-11-21T05:32:40;96054.53;;;6.84;100.00
69302;BME280;56689;47.842;8.974;2023-11-21T05:35:09;96060.66;;;6.91;100.00
69302;BME280;56689;47.842;8.974;2023-11-21T05:37:39;96051.09;;;6.80;100.00
69302;BME280;56689;47.842;8.974;2023-11-21T05:40:06;96075.25;;;6.87;100.00
69302;BME280;56689;47.842;8.974;2023-11-21T05:42:33;96077.75;;;6.84;100.00
69302;BME280;56689;47.842;8.974;2023-11-21T05:44:58;96075.09;;;6.76;100.00
69302;BME280;56689;47.842;8.974;2023-11-21T05:47:44;96061.19;;;6.64;100.00
69302;BME280;56689;47.842;8.974;2023-11-21T05:50:12;96088.88;;;6.78;100.00
69302;BME280;56689;47.842;8.974;2023-11-21T05:52:40;96068.91;;;6.61;100.00
69302;BME280;56689;47.842;8.974;2023-11-21T05:55:06;96096.53;;;6.71;100.00
69302;BME280;56689;47.842;8.974;2023-11-21T05:57:37;96082.75;;;6.70;100.00
69302;BME280;56689;47.842;8.974;2023-11-21T06:00:08;96106.94;;;6.78;100.00
69302;BME280;56689;47.842;8.974;2023-11-21T06:02:43;96088.78;;;6.69;100.00
69302;BME280;56689;47.842;8.974;2023-11-21T06:05:09;96098.31;;;6.75;100.00
69302;BME280;56689;47.842;8.974;2023-11-21T06:07:35;96112.91;;;6.74;100.00
69302;BME280;56689;47.842;8.974;2023-11-21T06:10:05;96097.28;;;6.62;100.00
69302;BME280;56689;47.842;8.974;2023-11-21T06:12:37;96111.97;;;6.68;100.00
69302;BME280;56689;47.842;8.974;2023-11-21T06:15:03;96117.22;;;6.74;100.00
69302;BME280;56689;47.842;8.974;2023-11-21T06:17:34;96118.00;;;6.70;100.00
69302;BME280;56689;47.842;8.974;2023-11-21T06:20:03;96122.34;;;6.72;100.00
69302;BME280;56689;47.842;8.974;2023-11-21T06:22:43;96107.63;;;6.64;100.00
69302;BME280;56689;47.842;8.974;2023-11-21T06:25:09;96122.31;;;6.69;100.00
69302;BME280;56689;47.842;8.974;2023-11-21T06:27:39;96126.63;;;6.72;100.00
69302;BME280;56689;47.842;8.974;2023-11-21T06:30:05;96122.31;;;6.69;100.00
69302;BME280;56689;47.842;8.974;2023-11-21T06:32:31;96119.75;;;6.72;100.00
69302;BME280;56689;47.842;8.974;2023-11-21T06:34:57;96128.44;;;6.79;100.00
69302;BME280;56689;47.842;8.974;2023-11-21T06:37:26;96131.94;;;6.82;100.00
69302;BME280;56689;47.842;8.974;2023-11-21T06:39:52;96147.50;;;6.90;100.00
69302;BME280;56689;47.842;8.974;2023-11-21T06:42:18;96120.75;;;6.82;100.00
69302;BME280;56689;47.842;8.974;2023-11-21T06:44:45;96151.88;;;6.94;100.00
69302;BME280;56689;47.842;8.974;2023-11-21T06:47:10;96153.53;;;6.91;100.00
69302;BME280;56689;47.842;8.974;2023-11-21T06:49:35;96151.03;;;6.97;100.00
69302;BME280;56689;47.842;8.974;2023-11-21T06:52:01;96138.09;;;6.94;100.00
69302;BME280;56689;47.842;8.974;2023-11-21T06:54:30;96156.19;;;6.97;100.00
69302;BME280;56689;47.842;8.974;2023-11-21T06:56:56;96167.44;;;7.02;100.00
69302;BME280;56689;47.842;8.974;2023-11-21T06:59:22;96141.47;;;6.88;100.00
69302;BME280;56689;47.842;8.974;2023-11-21T07:01:47;96158.84;;;7.03;100.00
69302;BME280;56689;47.842;8.974;2023-11-21T07:04:13;96130.38;;;6.94;100.00
69302;BME280;56689;47.842;8.974;2023-11-21T07:06:38;96146.84;;;7.06;100.00
69302;BME280;56689;47.842;8.974;2023-11-21T07:09:03;96134.69;;;6.98;100.00
69302;BME280;56689;47.842;8.974;2023-11-21T07:11:29;96150.25;;;7.04;100.00
69302;BME280;56689;47.842;8.974;2023-11-21T07:13:54;96147.75;;;7.11;100.00
69302;BME280;56689;47.842;8.974;2023-11-21T07:16:22;96136.56;;;7.09;100.00
69302;BME280;56689;47.842;8.974;2023-11-21T07:18:49;96162.47;;;7.17;100.00
69302;BME280;56689;47.842;8.974;2023-11-21T07:21:14;96155.44;;;7.05;100.00
69302;BME280;56689;47.842;8.974;2023-11-21T07:23:41;96159.88;;;7.16;100.00
69302;BME280;56689;47.842;8.974;2023-11-21T07:26:06;96153.78;;;7.10;100.00
69302;BME280;56689;47.842;8.974;2023-11-21T07:28:34;96175.44;;;7.23;100.00
69302;BME280;56689;47.842;8.974;2023-11-21T07:31:00;96172.84;;;7.23;100.00
69302;BME280;56689;47.842;8.974;2023-11-21T07:33:26;96172.88;;;7.25;100.00
69302;BME280;56689;47.842;8.974;2023-11-21T07:35:51;96152.22;;;7.23;100.00
69302;BME280;56689;47.842;8.974;2023-11-21T07:38:17;96179.03;;;7.37;100.00
69302;BME280;56689;47.842;8.974;2023-11-21T07:40:43;96164.25;;;7.24;100.00
69302;BME280;56689;47.842;8.974;2023-11-21T07:43:08;96179.91;;;7.36;100.00
69302;BME280;56689;47.842;8.974;2023-11-21T07:45:34;96160.84;;;7.27;100.00
69302;BME280;56689;47.842;8.974;2023-11-21T07:47:59;96156.59;;;7.33;100.00
69302;BME280;56689;47.842;8.974;2023-11-21T07:50:26;96171.31;;;7.39;100.00
69302;BME280;56689;47.842;8.974;2023-11-21T07:52:52;96170.44;;;7.37;100.00
69302;BME280;56689;47.842;8.974;2023-11-21T07:55:21;96185.16;;;7.46;100.00
69302;BME280;56689;47.842;8.974;2023-11-21T07:57:46;96178.28;;;7.46;100.00
69302;BME280;56689;47.842;8.974;2023-11-21T08:00:12;96171.34;;;7.42;100.00
69302;BME280;56689;47.842;8.974;2023-11-21T08:02:39;96176.56;;;7.47;100.00
69302;BME280;56689;47.842;8.974;2023-11-21T08:05:07;96167.06;;;7.46;100.00
69302;BME280;56689;47.842;8.974;2023-11-21T08:07:33;96179.19;;;7.51;100.00
69302;BME280;56689;47.842;8.974;2023-11-21T08:09:59;96160.09;;;7.35;100.00
69302;BME280;56689;47.842;8.974;2023-11-21T08:12:24;96185.22;;;7.53;100.00
69302;BME280;56689;47.842;8.974;2023-11-21T08:14:49;96176.63;;;7.53;100.00
69302;BME280;56689;47.842;8.974;2023-11-21T08:17:15;96168.88;;;7.53;100.00
69302;BME280;56689;47.842;8.974;2023-11-21T08:19:40;96186.16;;;7.58;100.00
69302;BME280;56689;47.842;8.974;2023-11-21T08:22:06;96182.78;;;7.62;100.00
69302;BME280;56689;47.842;8.974;2023-11-21T08:24:33;96176.66;;;7.56;100.00
69302;BME280;56689;47.842;8.974;2023-11-21T08:27:04;96161.19;;;7.59;100.00
69302;BME280;56689;47.842;8.974;2023-11-21T08:29:30;96171.59;;;7.68;100.00
69302;BME280;56689;47.842;8.974;2023-11-21T08:31:56;96180.25;;;7.72;100.00
69302;BME280;56689;47.842;8.974;2023-11-21T08:34:22;96185.44;;;7.70;100.00
69302;BME280;56689;47.842;8.974;2023-11-21T08:36:47;96173.31;;;7.66;100.00
69302;BME280;56689;47.842;8.974;2023-11-21T08:39:13;96194.97;;;7.79;100.00
69302;BME280;56689;47.842;8.974;2023-11-21T08:41:38;96173.38;;;7.69;100.00
69302;BME280;56689;47.842;8.974;2023-11-21T08:44:04;96187.22;;;7.79;100.00
69302;BME280;56689;47.842;8.974;2023-11-21T08:46:33;96181.13;;;7.71;100.00
69302;BME280;56689;47.842;8.974;2023-11-21T08:49:01;96191.53;;;7.80;100.00
69302;BME280;56689;47.842;8.974;2023-11-21T08:51:26;96178.53;;;7.72;100.00
69302;BME280;56689;47.842;8.974;2023-11-21T08:53:52;96195.03;;;7.85;100.00
69302;BME280;56689;47.842;8.974;2023-11-21T08:56:18;96189.00;;;7.86;100.00
69302;BME280;56689;47.842;8.974;2023-11-21T08:58:45;96183.00;;;7.88;100.00
69302;BME280;56689;47.842;8.974;2023-11-21T09:01:12;96183.09;;;7.98;100.00
69302;BME280;56689;47.842;8.974;2023-11-21T09:03:37;96191.72;;;7.97;100.00
69302;BME280;56689;47.842;8.974;2023-11-21T09:06:03;96184.03;;;8.04;100.00
69302;BME280;56689;47.842;8.974;2023-11-21T09:08:29;96194.41;;;8.10;100.00
69302;BME280;56689;47.842;8.974;2023-11-21T09:10:55;96200.41;;;8.09;100.00
69302;BME280;56689;47.842;8.974;2023-11-21T09:13:20;96191.84;;;8.13;100.00
69302;BME280;56689;47.842;8.974;2023-11-21T09:15:46;96185.06;;;8.26;100.00
69302;BME280;56689;47.842;8.974;2023-11-21T09:18:14;96219.78;;;8.56;100.00
69302;BME280;56689;47.842;8.974;2023-11-21T09:20:41;96225.06;;;8.68;100.00
69302;BME280;56689;47.842;8.974;2023-11-21T09:23:07;96223.28;;;8.59;100.00
69302;BME280;56689;47.842;8.974;2023-11-21T09:25:33;96220.66;;;8.56;100.00
69302;BME280;56689;47.842;8.974;2023-11-21T09:27:58;96212.09;;;8.63;100.00
69302;BME280;56689;47.842;8.974;2023-11-21T09:30:25;96226.00;;;8.79;100.00
69302;BME280;56689;47.842;8.974;2023-11-21T09:32:51;96214.78;;;8.79;100.00
69302;BME280;56689;47.842;8.974;2023-11-21T09:35:16;96217.28;;;8.66;100.00
69302;BME280;56689;47.842;8.974;2023-11-21T09:37:45;96209.53;;;8.66;100.00
69302;BME280;56689;47.842;8.974;2023-11-21T09:40:11;96209.63;;;8.79;100.00
69302;BME280;56689;47.842;8.974;2023-11-21T09:42:55;96215.75;;;8.93;100.00
69302;BME280;56689;47.842;8.974;2023-11-21T09:45:26;96224.28;;;8.81;100.00
69302;BME280;56689;47.842;8.974;2023-11-21T09:47:57;96223.44;;;8.84;100.00
69302;BME280;56689;47.842;8.974;2023-11-21T09:50:23;96208.66;;;8.66;100.00
69302;BME280;56689;47.842;8.974;2023-11-21T09:52:58;96226.88;;;8.83;100.00
69302;BME280;56689;47.842;8.974;2023-11-21T09:55:27;96212.16;;;8.72;100.00
69302;BME280;56689;47.842;8.974;2023-11-21T09:57:57;96211.34;;;8.84;100.00
69302;BME280;56689;47.842;8.974;2023-11-21T10:00:23;96226.91;;;8.86;100.00
69302;BME280;56689;47.842;8.974;2023-11-21T10:02:49;96218.25;;;8.84;100.00
69302;BME280;56689;47.842;8.974;2023-11-21T10:05:15;96209.63;;;8.85;100.00
69302;BME280;56689;47.842;8.974;2023-11-21T10:07:43;96222.59;;;8.86;100.00
69302;BME280;56689;47.842;8.974;2023-11-21T10:10:10;96212.22;;;8.80;100.00
69302;BME280;56689;47.842;8.974;2023-11-21T10:12:35;96192.28;;;8.67;100.00
69302;BME280;56689;47.842;8.974;2023-11-21T10:15:03;96211.34;;;8.84;100.00
69302;BME280;56689;47.842;8.974;2023-11-21T10:17:31;96217.50;;;9.03;100.00
69302;BME280;56689;47.842;8.974;2023-11-21T10:20:05;96217.53;;;9.12;100.00
69302;BME280;56689;47.842;8.974;2023-11-21T10:22:42;96221.00;;;9.11;100.00
69302;BME280;56689;47.842;8.974;2023-11-21T10:25:12;96214.13;;;9.16;100.00
69302;BME280;56689;47.842;8.974;2023-11-21T10:27:40;96216.72;;;9.19;100.00
69302;BME280;56689;47.842;8.974;2023-11-21T10:30:10;96214.16;;;9.24;100.00
69302;BME280;56689;47.842;8.974;2023-11-21T10:32:40;96225.44;;;9.34;100.00
69302;BME280;56689;47.842;8.974;2023-11-21T10:35:09;96214.19;;;9.31;100.00
69302;BME280;56689;47.842;8.974;2023-11-21T10:37:39;96201.22;;;9.31;100.00
69302;BME280;56689;47.842;8.974;2023-11-21T10:40:09;96217.66;;;9.38;100.00
69302;BME280;56689;47.842;8.974;2023-11-21T10:42:41;96203.03;;;9.43;100.00
69302;BME280;56689;47.842;8.974;2023-11-21T10:45:07;96192.66;;;9.46;100.00
69302;BME280;56689;47.842;8.974;2023-11-21T10:47:42;96203.91;;;9.60;100.00
69302;BME280;56689;47.842;8.974;2023-11-21T10:50:09;96203.91;;;9.60;100.00
69302;BME280;56689;47.842;8.974;2023-11-21T10:52:39;96195.28;;;9.58;100.00
69302;BME280;56689;47.842;8.974;2023-11-21T10:55:19;96205.69;;;9.63;100.00
69302;BME280;56689;47.842;8.974;2023-11-21T10:57:48;96199.66;;;9.69;100.00
69302;BME280;56689;47.842;8.974;2023-11-21T11:00:16;96203.03;;;9.52;100.00
69302;BME280;56689;47.842;8.974;2023-11-21T11:02:44;96190.94;;;9.42;100.00
69302;BME280;56689;47.842;8.974;2023-11-21T11:05:14;96200.44;;;9.49;100.00
69302;BME280;56689;47.842;8.974;2023-11-21T11:07:42;96188.38;;;9.48;100.00
69302;BME280;56689;47.842;8.974;2023-11-21T11:10:09;96204.81;;;9.64;100.00
69302;BME280;56689;47.842;8.974;2023-11-21T11:12:40;96187.50;;;9.57;97.54
69302;BME280;56689;47.842;8.974;2023-11-21T11:15:06;96206.53;;;9.62;97.31
69302;BME280;56689;47.842;8.974;2023-11-21T11:17:37;96190.13;;;9.54;98.61
69302;BME280;56689;47.842;8.974;2023-11-21T11:20:08;96201.41;;;9.94;98.88
69302;BME280;56689;47.842;8.974;2023-11-21T11:28:18;96180.72;;;10.29;95.40
69302;BME280;56689;47.842;8.974;2023-11-21T11:33:43;96174.66;;;10.61;91.99
69302;BME280;56689;47.842;8.974;2023-11-21T11:36:19;96173.78;;;10.63;91.23
69302;BME280;56689;47.842;8.974;2023-11-21T11:38:47;96156.47;;;10.61;92.14
69302;BME280;56689;47.842;8.974;2023-11-21T11:41:27;96183.28;;;10.67;94.85
69302;BME280;56689;47.842;8.974;2023-11-21T11:43:53;96175.50;;;10.61;96.50
69302;BME280;56689;47.842;8.974;2023-11-21T11:46:19;96182.47;;;10.44;91.11
69302;BME280;56689;47.842;8.974;2023-11-21T11:48:48;96187.66;;;10.33;96.06
69302;BME280;56689;47.842;8.974;2023-11-21T11:51:27;96189.34;;;10.22;94.91
69302;BME280;56689;47.842;8.974;2023-11-21T11:53:52;96194.53;;;10.18;98.53
69302;BME280;56689;47.842;8.974;2023-11-21T11:56:33;96191.06;;;9.99;98.70
69302;BME280;56689;47.842;8.974;2023-11-21T11:59:04;96197.13;;;10.02;98.56
69302;BME280;56689;47.842;8.974;2023-11-21T12:01:32;96186.75;;;10.04;100.00
69302;BME280;56689;47.842;8.974;2023-11-21T12:07:02;96191.94;;;10.11;97.42
69302;BME280;56689;47.842;8.974;2023-11-21T12:09:28;96189.34;;;10.14;93.64
69302;BME280;56689;47.842;8.974;2023-11-21T12:11:55;96201.44;;;10.20;94.07
69302;BME280;56689;47.842;8.974;2023-11-21T12:14:24;96185.03;;;10.20;95.12
69302;BME280;56689;47.842;8.974;2023-11-21T12:16:50;96183.31;;;10.28;96.54
69302;BME280;56689;47.842;8.974;2023-11-21T12:19:17;96187.66;;;10.30;94.35
69302;BME280;56689;47.842;8.974;2023-11-21T12:21:42;96191.06;;;10.20;96.02
69302;BME280;56689;47.842;8.974;2023-11-21T12:24:09;96198.00;;;10.17;98.31
69302;BME280;56689;47.842;8.974;2023-11-21T12:26:35;96180.69;;;10.06;98.29
69302;BME280;56689;47.842;8.974;2023-11-21T12:29:01;96195.38;;;9.95;99.39
69302;BME280;56689;47.842;8.974;2023-11-21T12:31:29;96179.78;;;9.77;100.00
69302;BME280;56689;47.842;8.974;2023-11-21T12:33:55;96194.50;;;9.84;100.00
69302;BME280;56689;47.842;8.974;2023-11-21T12:36:21;96200.53;;;9.68;100.00
69302;BME280;56689;47.842;8.974;2023-11-21T12:38:47;96185.75;;;9.41;100.00
69302;BME280;56689;47.842;8.974;2023-11-21T12:41:12;96215.13;;;9.52;100.00
69302;BME280;56689;47.842;8.974;2023-11-21T12:43:41;96200.41;;;9.37;100.00
69302;BME280;56689;47.842;8.974;2023-11-21T12:46:07;96192.69;;;9.60;100.00
69302;BME280;56689;47.842;8.974;2023-11-21T12:48:39;96211.78;;;9.83;100.00
69302;BME280;56689;47.842;8.974;2023-11-21T12:51:09;96191.06;;;9.90;100.00
69302;BME280;56689;47.842;8.974;2023-11-21T12:53:37;96207.50;;;10.11;100.00
69302;BME280;56689;47.842;8.974;2023-11-21T12:56:13;96218.72;;;10.06;100.00
69302;BME280;56689;47.842;8.974;2023-11-21T12:58:39;96210.09;;;10.13;100.00
69302;BME280;56689;47.842;8.974;2023-11-21T13:01:07;96215.34;;;10.24;100.00
69302;BME280;56689;47.842;8.974;2023-11-21T13:03:38;96219.63;;;10.28;100.00
69302;BME280;56689;47.842;8.974;2023-11-21T13:06:04;96217.91;;;10.25;99.67
69302;BME280;56689;47.842;8.974;2023-11-21T13:08:55;96198.91;;;10.26;100.00
69302;BME280;56689;47.842;8.974;2023-11-21T13:11:37;96204.94;;;10.27;100.00
69302;BME280;56689;47.842;8.974;2023-11-21T13:14:06;96204.97;;;10.31;100.00
69302;BME280;56689;47.842;8.974;2023-11-21T13:16:31;96220.50;;;10.40;100.00
69302;BME280;56689;47.842;8.974;2023-11-21T13:18:57;96204.09;;;10.32;97.52
69302;BME280;56689;47.842;8.974;2023-11-21T13:21:23;96212.75;;;10.45;97.70
69302;BME280;56689;47.842;8.974;2023-11-21T13:23:49;96216.19;;;10.49;97.42
69302;BME280;56689;47.842;8.974;2023-11-21T13:26:17;96198.03;;;10.32;96.71
69302;BME280;56689;47.842;8.974;2023-11-21T13:28:45;96209.25;;;10.41;97.90
69302;BME280;56689;47.842;8.974;2023-11-21T13:31:12;96218.78;;;10.39;95.88
69302;BME280;56689;47.842;8.974;2023-11-21T13:33:51;96215.34;;;10.39;94.77
69302;BME280;56689;47.842;8.974;2023-11-21T13:36:22;96230.91;;;10.44;94.40
69302;BME280;56689;47.842;8.974;2023-11-21T13:38:51;96218.78;;;10.52;93.84
69302;BME280;56689;47.842;8.974;2023-11-21T13:41:19;96229.16;;;10.47;94.03
69302;BME280;56689;47.842;8.974;2023-11-21T13:43:45;96216.19;;;10.41;89.47
69302;BME280;56689;47.842;8.974;2023-11-21T13:46:17;96224.84;;;10.41;87.90
69302;BME280;56689;47.842;8.974;2023-11-21T13:48:48;96237.81;;;10.40;87.63
69302;BME280;56689;47.842;8.974;2023-11-21T13:51:21;96221.38;;;10.32;86.87
69302;BME280;56689;47.842;8.974;2023-11-21T13:53:54;96217.00;;;10.19;87.44
69302;BME280;56689;47.842;8.974;2023-11-21T13:56:21;96237.78;;;10.17;89.94
69302;BME280;56689;47.842;8.974;2023-11-21T13:58:50;96234.31;;;10.10;93.34
69302;BME280;56689;47.842;8.974;2023-11-21T14:01:19;96241.22;;;10.16;95.08
69302;BME280;56689;47.842;8.974;2023-11-21T14:04:01;96237.75;;;10.09;98.48
69302;BME280;56689;47.842;8.974;2023-11-21T14:06:48;96219.59;;;10.08;98.96
69302;BME280;56689;47.842;8.974;2023-11-21T14:09:19;96235.16;;;10.05;93.38
69302;BME280;56689;47.842;8.974;2023-11-21T14:11:57;96237.75;;;10.03;97.95
69302;BME280;56689;47.842;8.974;2023-11-21T14:14:24;96254.16;;;10.07;97.63
69302;BME280;56689;47.842;8.974;2023-11-21T14:16:50;96250.72;;;10.03;95.00
69302;BME280;56689;47.842;8.974;2023-11-21T14:19:17;96252.44;;;10.04;92.83
69302;BME280;56689;47.842;8.974;2023-11-21T14:21:46;96239.44;;;9.91;97.32
69302;BME280;56689;47.842;8.974;2023-11-21T14:24:12;96243.78;;;9.90;94.40
69302;BME280;56689;47.842;8.974;2023-11-21T14:26:41;96245.47;;;9.82;94.29
69302;BME280;56689;47.842;8.974;2023-11-21T14:29:08;96253.25;;;9.88;95.62
69302;BME280;56689;47.842;8.974;2023-11-21T14:31:34;96261.03;;;9.94;96.30
69302;BME280;56689;47.842;8.974;2023-11-21T14:33:59;96239.41;;;9.80;95.81
69302;BME280;56689;47.842;8.974;2023-11-21T14:36:27;96249.81;;;9.89;94.25
69302;BME280;56689;47.842;8.974;2023-11-21T14:38:52;96242.88;;;9.80;96.65
69302;BME280;56689;47.842;8.974;2023-11-21T14:41:18;96256.72;;;9.87;99.95
69302;BME280;56689;47.842;8.974;2023-11-21T14:43:44;96254.09;;;9.79;99.88
69302;BME280;56689;47.842;8.974;2023-11-21T14:46:11;96273.97;;;9.79;97.95
69302;BME280;56689;47.842;8.974;2023-11-21T14:48:39;96265.31;;;9.71;95.36
69302;BME280;56689;47.842;8.974;2023-11-21T14:51:11;96266.16;;;9.65;96.97
69302;BME280;56689;47.842;8.974;2023-11-21T14:53:53;96279.09;;;9.64;98.09
69302;BME280;56689;47.842;8.974;2023-11-21T14:56:21;96264.38;;;9.52;96.67
69302;BME280;56689;47.842;8.974;2023-11-21T14:58:56;96262.59;;;9.43;97.74
69302;BME280;56689;47.842;8.974;2023-11-21T15:01:23;96283.38;;;9.51;98.16
69302;BME280;56689;47.842;8.974;2023-11-21T15:04:07;96285.06;;;9.41;99.00
69302;BME280;56689;47.842;8.974;2023-11-21T15:06:34;96287.63;;;9.37;99.85
69302;BME280;56689;47.842;8.974;2023-11-21T15:09:00;96291.06;;;9.36;99.92